Time;durP1;ratioP1;P1;durP2;ratioP2;P2;SDS_P1;SDS_P2;PMS_P1;PMS_P2;Temp;Humidity;BMP_temperature;BMP_pressure;BME280_temperature;BME280_humidity;BME280_pressure;Samples;Min_cycle;Max_cycle;Signal;HPM_P1;HPM_P2
2024/01/18 00:00:22;;;;;;;49.72;25.25;;;-0.70;99.90;;;;;;5053252;28;20029;-73
2024/01/18 00:02:47;;;;;;;47.08;25.98;;;-0.80;99.90;;;;;;5052941;28;20084;-72
2024/01/18 00:05:13;;;;;;;53.42;26.27;;;-0.70;99.90;;;;;;5053157;28;20107;-73
2024/01/18 00:07:38;;;;;;;49.88;26.00;;;-0.70;99.90;;;;;;5053374;28;20110;-73
2024/01/18 00:10:04;;;;;;;49.22;25.15;;;-0.70;99.90;;;;;;5053359;28;20021;-72
2024/01/18 00:12:30;;;;;;;44.28;24.88;;;-0.70;99.90;;;;;;5052709;28;20426;-72
2024/01/18 00:14:56;;;;;;;52.58;24.83;;;-0.70;99.90;;;;;;5053219;28;20078;-72
2024/01/18 00:17:21;;;;;;;45.90;25.23;;;-0.70;99.90;;;;;;5053070;28;20033;-72
2024/01/18 00:19:47;;;;;;;47.35;24.73;;;-0.70;99.90;;;;;;5053103;28;20037;-72
2024/01/18 00:22:12;;;;;;;55.70;25.90;;;-0.70;99.90;;;;;;5053019;28;20098;-72
2024/01/18 00:24:38;;;;;;;51.20;26.10;;;-0.70;99.90;;;;;;5053176;28;20025;-72
2024/01/18 00:27:03;;;;;;;48.20;25.65;;;-0.70;99.90;;;;;;5053032;28;20040;-72
2024/01/18 00:29:31;;;;;;;54.22;26.67;;;-0.70;99.90;;;;;;5053061;28;20052;-72
2024/01/18 00:31:56;;;;;;;48.97;25.60;;;-0.70;99.90;;;;;;5053102;28;20025;-71
2024/01/18 00:34:22;;;;;;;49.05;25.85;;;-0.70;99.90;;;;;;5053086;28;20036;-71
2024/01/18 00:36:49;;;;;;;48.22;25.95;;;-0.70;99.90;;;;;;5053077;28;20048;-71
2024/01/18 00:39:18;;;;;;;46.72;25.55;;;-0.70;99.50;;;;;;5053238;28;20501;-71
2024/01/18 00:41:44;;;;;;;51.75;26.42;;;-0.70;99.90;;;;;;5053300;28;20471;-73
2024/01/18 00:44:10;;;;;;;49.53;25.92;;;-0.80;99.90;;;;;;5052729;28;20120;-73
2024/01/18 00:46:35;;;;;;;53.08;26.35;;;-0.80;99.00;;;;;;5053045;28;20029;-73
2024/01/18 00:49:01;;;;;;;56.08;28.00;;;-0.80;96.50;;;;;;5052781;28;20056;-73
2024/01/18 00:51:27;;;;;;;54.72;27.60;;;-0.80;98.90;;;;;;5052768;28;20067;-73
2024/01/18 00:53:52;;;;;;;49.22;27.30;;;-0.80;99.90;;;;;;5052762;28;20055;-73
2024/01/18 00:56:18;;;;;;;51.70;26.38;;;-0.80;99.90;;;;;;5052784;28;20100;-73
2024/01/18 00:58:44;;;;;;;52.20;25.30;;;-0.80;99.90;;;;;;5052718;28;20040;-73
2024/01/18 01:01:10;;;;;;;52.28;26.58;;;-0.80;99.90;;;;;;5052907;28;20021;-73
2024/01/18 01:03:36;;;;;;;54.47;28.45;;;-0.80;97.10;;;;;;5052345;28;20045;-72
2024/01/18 01:06:02;;;;;;;51.30;27.58;;;-0.80;96.80;;;;;;5052533;28;20029;-71
2024/01/18 01:08:27;;;;;;;54.40;27.98;;;-0.80;96.00;;;;;;5052682;28;20086;-72
2024/01/18 01:10:53;;;;;;;55.47;28.58;;;-0.80;96.80;;;;;;5054848;28;20048;-72
2024/01/18 01:13:19;;;;;;;52.58;27.02;;;-0.70;97.70;;;;;;5056326;28;20025;-72
2024/01/18 01:15:44;;;;;;;55.50;29.83;;;-0.70;99.90;;;;;;5056284;28;20033;-72
2024/01/18 01:18:11;;;;;;;52.13;28.15;;;-0.70;99.90;;;;;;5055823;28;20503;-72
2024/01/18 01:20:36;;;;;;;51.05;27.35;;;-0.70;99.90;;;;;;5056150;28;20083;-73
2024/01/18 01:23:03;;;;;;;55.50;27.90;;;-0.70;99.90;;;;;;5055870;28;20129;-72
2024/01/18 01:25:28;;;;;;;53.65;30.52;;;-0.70;99.90;;;;;;5056008;28;20025;-72
2024/01/18 01:27:54;;;;;;;57.65;29.92;;;-0.70;99.90;;;;;;5056038;28;20479;-72
2024/01/18 01:30:20;;;;;;;49.08;27.80;;;-0.70;99.90;;;;;;5056042;28;20033;-72
2024/01/18 01:32:45;;;;;;;56.50;30.30;;;-0.70;99.90;;;;;;5055916;28;20029;-73
2024/01/18 01:35:11;;;;;;;56.13;30.02;;;-0.70;99.90;;;;;;5055490;28;20196;-72
2024/01/18 01:37:37;;;;;;;53.67;28.73;;;-0.70;99.90;;;;;;5055886;28;20544;-72
2024/01/18 01:40:05;;;;;;;54.35;29.15;;;-0.70;99.90;;;;;;5055742;28;20083;-72
2024/01/18 01:42:31;;;;;;;60.63;30.90;;;-0.70;99.90;;;;;;5055651;28;20032;-72
2024/01/18 01:44:56;;;;;;;54.85;29.42;;;-0.70;99.90;;;;;;5055649;28;20029;-72
2024/01/18 01:47:22;;;;;;;54.88;29.50;;;-0.70;99.90;;;;;;5055687;28;20028;-72
2024/01/18 01:49:48;;;;;;;57.53;30.77;;;-0.70;99.90;;;;;;5055545;28;20064;-72
2024/01/18 01:52:15;;;;;;;60.92;30.25;;;-0.70;99.90;;;;;;5055663;28;20040;-72
2024/01/18 01:54:42;;;;;;;65.25;29.63;;;-0.70;99.90;;;;;;5055522;28;20025;-72
2024/01/18 01:57:08;;;;;;;57.97;29.88;;;-0.70;99.90;;;;;;5055583;28;20025;-72
2024/01/18 01:59:34;;;;;;;53.22;29.17;;;-0.70;99.90;;;;;;5055273;28;20013;-73
2024/01/18 02:02:00;;;;;;;55.08;30.13;;;-0.80;99.90;;;;;;5055161;28;20041;-72
2024/01/18 02:04:26;;;;;;;55.45;29.77;;;-0.70;99.90;;;;;;5055017;28;20119;-72
2024/01/18 02:06:53;;;;;;;55.17;30.13;;;-0.80;99.90;;;;;;5055276;28;20029;-72
2024/01/18 02:09:19;;;;;;;55.75;31.60;;;-0.80;99.90;;;;;;5054915;28;20028;-72
2024/01/18 02:11:45;;;;;;;54.90;29.90;;;-0.80;99.90;;;;;;5055231;28;20025;-72
2024/01/18 02:14:11;;;;;;;58.97;31.42;;;-0.80;99.90;;;;;;5055173;28;20111;-73
2024/01/18 02:16:37;;;;;;;58.47;31.70;;;-0.80;99.90;;;;;;5055363;28;20056;-72
2024/01/18 02:19:02;;;;;;;56.80;31.75;;;-0.90;99.90;;;;;;5054964;28;20386;-73
2024/01/18 02:21:28;;;;;;;59.47;31.15;;;-0.80;99.90;;;;;;5055047;28;20131;-72
2024/01/18 02:23:59;;;;;;;62.97;31.30;;;-0.80;99.90;;;;;;5054721;28;20075;-72
2024/01/18 02:26:25;;;;;;;59.08;31.73;;;-0.80;99.90;;;;;;5054941;28;20434;-72
2024/01/18 02:28:56;;;;;;;57.92;29.73;;;-0.90;99.90;;;;;;5054922;28;20064;-72
2024/01/18 02:31:22;;;;;;;59.40;31.10;;;-0.90;99.90;;;;;;5054874;28;20032;-72
2024/01/18 02:33:48;;;;;;;60.75;32.55;;;-0.90;99.90;;;;;;5054789;28;20029;-72
2024/01/18 02:36:15;;;;;;;65.80;32.85;;;-0.90;99.90;;;;;;5054606;28;20024;-72
2024/01/18 02:38:41;;;;;;;57.97;31.70;;;-0.90;99.90;;;;;;5054140;28;20027;-72
2024/01/18 02:41:06;;;;;;;61.65;31.50;;;-0.90;99.90;;;;;;5054717;28;20029;-72
2024/01/18 02:43:32;;;;;;;58.60;32.25;;;-0.90;99.90;;;;;;5054328;28;20075;-72
2024/01/18 02:45:58;;;;;;;60.13;32.42;;;-0.90;99.90;;;;;;5054511;28;20506;-72
2024/01/18 02:48:23;;;;;;;60.75;32.70;;;-0.90;99.90;;;;;;5054170;28;20029;-72
2024/01/18 02:50:49;;;;;;;60.95;31.02;;;-0.90;99.90;;;;;;5054482;28;20040;-72
2024/01/18 02:53:14;;;;;;;58.58;31.48;;;-0.90;99.90;;;;;;5054314;28;20037;-72
2024/01/18 02:55:40;;;;;;;58.00;31.15;;;-0.90;99.90;;;;;;5054429;28;20410;-72
2024/01/18 02:58:05;;;;;;;60.70;32.30;;;-0.90;99.90;;;;;;5054405;28;20039;-72
2024/01/18 03:00:31;;;;;;;60.72;32.10;;;-0.90;99.90;;;;;;5053827;28;20035;-72
2024/01/18 03:02:56;;;;;;;60.42;33.20;;;-0.90;99.90;;;;;;5053752;28;20053;-72
2024/01/18 03:05:22;;;;;;;63.75;33.63;;;-1.00;99.90;;;;;;5053693;28;20025;-72
2024/01/18 03:07:47;;;;;;;57.45;32.25;;;-0.90;99.90;;;;;;5054155;28;20445;-72
2024/01/18 03:10:13;;;;;;;61.00;32.30;;;-0.90;99.90;;;;;;5054145;28;20028;-71
2024/01/18 03:12:39;;;;;;;60.38;32.17;;;-0.90;99.90;;;;;;5054172;28;20067;-72
2024/01/18 03:15:08;;;;;;;63.88;32.83;;;-0.90;99.90;;;;;;5054013;28;20032;-72
2024/01/18 03:17:33;;;;;;;57.70;32.75;;;-0.90;99.90;;;;;;5053556;28;20033;-72
2024/01/18 03:19:59;;;;;;;66.78;34.20;;;-0.90;99.90;;;;;;5053806;28;20021;-72
2024/01/18 03:22:24;;;;;;;64.53;33.53;;;-0.90;99.90;;;;;;5053725;28;20082;-72
2024/01/18 03:24:51;;;;;;;62.88;33.75;;;-0.90;99.90;;;;;;5053756;28;20066;-72
2024/01/18 03:27:18;;;;;;;62.30;33.05;;;-0.90;99.90;;;;;;5053849;28;20102;-72
2024/01/18 03:29:44;;;;;;;65.13;35.33;;;-0.90;99.90;;;;;;5053793;28;20025;-72
2024/01/18 03:32:09;;;;;;;55.95;32.08;;;-0.90;99.90;;;;;;5053113;28;20024;-72
2024/01/18 03:34:35;;;;;;;59.53;31.77;;;-0.90;99.90;;;;;;5053271;28;20036;-72
2024/01/18 03:37:00;;;;;;;64.72;32.50;;;-0.90;99.90;;;;;;5053654;28;20021;-72
2024/01/18 03:39:26;;;;;;;58.08;32.75;;;-0.90;99.90;;;;;;5053553;28;20063;-72
2024/01/18 03:41:52;;;;;;;57.00;32.15;;;-0.90;99.90;;;;;;5053649;28;20068;-72
2024/01/18 03:44:19;;;;;;;62.17;33.28;;;-1.00;99.90;;;;;;5053306;28;20029;-72
2024/01/18 03:46:45;;;;;;;59.75;32.83;;;-1.00;99.90;;;;;;5053125;28;20021;-72
2024/01/18 03:49:10;;;;;;;54.20;32.10;;;-1.00;99.90;;;;;;5053554;28;20495;-72
2024/01/18 03:51:36;;;;;;;57.80;32.17;;;-1.00;99.90;;;;;;5052937;28;20363;-72
2024/01/18 03:54:01;;;;;;;63.65;33.67;;;-1.00;99.90;;;;;;5053367;28;20425;-72
2024/01/18 03:56:27;;;;;;;54.95;31.50;;;-1.00;99.90;;;;;;5053363;28;20025;-73
2024/01/18 03:58:52;;;;;;;54.85;32.75;;;-1.00;99.90;;;;;;5052915;28;20036;-72
2024/01/18 04:01:18;;;;;;;63.15;34.60;;;-1.00;99.90;;;;;;5053271;28;20036;-72
2024/01/18 04:03:48;;;;;;;63.17;35.65;;;-1.00;99.90;;;;;;5052923;28;20052;-72
2024/01/18 04:06:13;;;;;;;66.22;35.22;;;-1.00;99.90;;;;;;5053218;28;20055;-72
2024/01/18 04:08:39;;;;;;;66.32;35.47;;;-1.00;99.90;;;;;;5053336;28;20477;-72
2024/01/18 04:11:05;;;;;;;60.22;34.20;;;-1.10;99.90;;;;;;5053135;28;20126;-72
2024/01/18 04:13:31;;;;;;;60.10;34.60;;;-1.10;99.90;;;;;;5053222;28;20363;-71
2024/01/18 04:15:57;;;;;;;64.25;34.20;;;-1.10;99.90;;;;;;5053224;28;20047;-72
2024/01/18 04:18:22;;;;;;;64.32;34.42;;;-1.10;99.90;;;;;;5053117;28;20060;-72
2024/01/18 04:20:52;;;;;;;60.28;33.53;;;-1.10;99.90;;;;;;5053130;28;20033;-72
2024/01/18 04:23:18;;;;;;;62.40;34.20;;;-1.10;99.90;;;;;;5052999;28;20415;-72
2024/01/18 04:25:44;;;;;;;62.00;35.05;;;-1.20;99.90;;;;;;5053111;28;20025;-72
2024/01/18 04:28:09;;;;;;;61.65;33.33;;;-1.20;99.90;;;;;;5052790;28;20071;-72
2024/01/18 04:30:35;;;;;;;63.92;35.17;;;-1.20;99.90;;;;;;5052937;28;20021;-72
2024/01/18 04:33:00;;;;;;;63.30;34.58;;;-1.20;99.90;;;;;;5052551;28;20025;-72
2024/01/18 04:35:26;;;;;;;70.00;37.28;;;-1.20;99.90;;;;;;5053073;28;20033;-73
2024/01/18 04:37:51;;;;;;;64.20;35.45;;;-1.20;99.90;;;;;;5052994;28;20490;-72
2024/01/18 04:40:17;;;;;;;68.60;36.58;;;-1.20;99.90;;;;;;5053018;28;20043;-72
2024/01/18 04:42:42;;;;;;;67.43;35.45;;;-1.20;99.90;;;;;;5052805;28;20039;-72
2024/01/18 04:45:08;;;;;;;67.22;36.40;;;-1.20;99.90;;;;;;5054032;28;20051;-72
2024/01/18 04:47:34;;;;;;;70.55;37.03;;;-1.20;99.90;;;;;;5056295;28;20017;-72
2024/01/18 04:49:59;;;;;;;73.18;37.85;;;-1.20;99.90;;;;;;5056770;28;20028;-72
2024/01/18 04:52:25;;;;;;;73.53;37.63;;;-1.20;99.90;;;;;;5056617;28;20036;-72
2024/01/18 04:54:50;;;;;;;68.78;36.75;;;-1.20;99.90;;;;;;5056641;28;20429;-72
2024/01/18 04:57:16;;;;;;;66.28;36.28;;;-1.20;99.90;;;;;;5056692;28;20017;-72
2024/01/18 04:59:42;;;;;;;76.43;40.08;;;-1.20;99.90;;;;;;5056299;28;20024;-72
2024/01/18 05:02:07;;;;;;;68.70;36.63;;;-1.20;99.90;;;;;;5056284;28;20105;-72
2024/01/18 05:04:33;;;;;;;71.65;36.15;;;-1.20;99.90;;;;;;5056036;28;20174;-72
2024/01/18 05:06:58;;;;;;;75.10;37.58;;;-1.20;99.90;;;;;;5056358;28;20078;-72
2024/01/18 05:09:24;;;;;;;74.72;39.90;;;-1.20;99.90;;;;;;5056314;28;20108;-72
2024/01/18 05:11:51;;;;;;;75.32;37.85;;;-1.30;99.90;;;;;;5055928;28;20479;-73
2024/01/18 05:14:17;;;;;;;68.05;36.35;;;-1.20;99.90;;;;;;5056241;28;20017;-72
2024/01/18 05:16:43;;;;;;;65.38;34.95;;;-1.20;99.90;;;;;;5056112;28;20040;-72
2024/01/18 05:19:09;;;;;;;61.35;35.45;;;-1.30;99.90;;;;;;5055927;28;20115;-72
2024/01/18 05:21:34;;;;;;;69.28;36.78;;;-1.30;99.90;;;;;;5056027;28;20484;-72
2024/01/18 05:24:00;;;;;;;70.50;37.15;;;-1.40;99.90;;;;;;5055793;28;20060;-72
2024/01/18 05:26:25;;;;;;;68.07;36.53;;;-1.40;99.90;;;;;;5056128;28;20091;-71
2024/01/18 05:28:51;;;;;;;69.47;36.90;;;-1.40;99.90;;;;;;5056063;28;20021;-72
2024/01/18 05:31:16;;;;;;;70.70;37.40;;;-1.40;99.90;;;;;;5055791;28;20036;-71
2024/01/18 05:33:42;;;;;;;68.35;37.13;;;-1.40;99.90;;;;;;5055677;28;20033;-71
2024/01/18 05:36:07;;;;;;;71.65;39.20;;;-1.50;99.90;;;;;;5055560;28;20029;-72
2024/01/18 05:38:33;;;;;;;79.43;38.17;;;-1.40;99.90;;;;;;5055743;28;20033;-72
2024/01/18 05:40:59;;;;;;;70.28;38.13;;;-1.40;99.90;;;;;;5055747;28;20025;-72
2024/01/18 05:43:25;;;;;;;72.15;35.95;;;-1.50;99.90;;;;;;5055594;28;20398;-72
2024/01/18 05:45:50;;;;;;;67.38;36.53;;;-1.50;99.90;;;;;;5055648;28;20025;-72
2024/01/18 05:48:16;;;;;;;63.88;35.78;;;-1.60;99.90;;;;;;5055704;28;20029;-72
2024/01/18 05:50:42;;;;;;;71.45;38.50;;;-1.60;99.90;;;;;;5055626;28;20029;-72
2024/01/18 05:53:08;;;;;;;69.82;37.85;;;-1.60;99.90;;;;;;5055584;28;20028;-72
2024/01/18 05:55:34;;;;;;;66.90;37.00;;;-1.60;99.90;;;;;;5055161;28;20119;-72
2024/01/18 05:58:00;;;;;;;77.72;38.25;;;-1.70;99.90;;;;;;5055528;28;20028;-72
2024/01/18 06:00:26;;;;;;;76.60;42.13;;;-1.70;99.90;;;;;;5055451;28;20033;-72
2024/01/18 06:02:51;;;;;;;77.15;39.75;;;-1.80;99.90;;;;;;5054741;28;20055;-72
2024/01/18 06:05:17;;;;;;;73.85;38.25;;;-1.70;99.90;;;;;;5055362;28;20453;-72
2024/01/18 06:07:42;;;;;;;69.40;38.10;;;-1.80;99.90;;;;;;5055491;28;20360;-72
2024/01/18 06:10:08;;;;;;;69.03;37.45;;;-1.80;99.90;;;;;;5055159;28;20368;-72
2024/01/18 06:12:34;;;;;;;67.65;37.80;;;-1.80;99.90;;;;;;5054703;28;20029;-72
2024/01/18 06:15:00;;;;;;;79.10;42.67;;;-1.80;99.90;;;;;;5055102;28;20036;-72
2024/01/18 06:17:26;;;;;;;76.03;41.10;;;-1.80;99.90;;;;;;5055267;28;20025;-72
2024/01/18 06:19:51;;;;;;;83.05;43.97;;;-1.80;99.90;;;;;;5055230;28;20522;-72
2024/01/18 06:22:17;;;;;;;78.53;42.55;;;-1.70;99.90;;;;;;5055156;28;20025;-72
2024/01/18 06:24:42;;;;;;;73.72;41.08;;;-1.80;99.90;;;;;;5055094;28;20025;-73
2024/01/18 06:27:08;;;;;;;80.68;42.88;;;-1.70;99.90;;;;;;5055172;28;20039;-72
2024/01/18 06:29:35;;;;;;;82.68;42.28;;;-1.80;99.90;;;;;;5054852;28;20048;-72
2024/01/18 06:32:00;;;;;;;80.75;43.10;;;-1.80;99.90;;;;;;5054870;28;20517;-72
2024/01/18 06:34:28;;;;;;;75.70;42.10;;;-1.80;99.90;;;;;;5055112;28;20360;-72
2024/01/18 06:36:53;;;;;;;79.88;43.25;;;-1.80;99.90;;;;;;5054790;28;20035;-72
2024/01/18 06:39:19;;;;;;;84.47;44.40;;;-1.80;99.90;;;;;;5054456;28;20052;-72
2024/01/18 06:41:44;;;;;;;85.93;43.42;;;-1.80;99.90;;;;;;5054584;28;20072;-71
2024/01/18 06:44:10;;;;;;;77.50;41.75;;;-1.80;99.90;;;;;;5054403;28;20116;-71
2024/01/18 06:46:36;;;;;;;82.57;43.95;;;-1.80;99.90;;;;;;5054261;28;20060;-71
2024/01/18 06:49:01;;;;;;;82.57;44.75;;;-1.80;99.90;;;;;;5054460;28;20029;-72
2024/01/18 06:51:28;;;;;;;77.70;40.60;;;-1.80;99.90;;;;;;5054467;28;20415;-71
2024/01/18 06:53:54;;;;;;;78.93;41.33;;;-1.90;99.90;;;;;;5054341;28;20545;-71
2024/01/18 06:56:20;;;;;;;81.57;42.63;;;-1.90;99.90;;;;;;5054343;28;20115;-71
2024/01/18 06:58:45;;;;;;;76.95;39.42;;;-2.00;99.90;;;;;;5054425;28;20471;-71
2024/01/18 07:01:12;;;;;;;77.03;42.60;;;-2.00;99.90;;;;;;5054404;28;20040;-70
2024/01/18 07:03:38;;;;;;;78.43;41.90;;;-2.10;99.90;;;;;;5053775;28;20473;-71
2024/01/18 07:06:04;;;;;;;76.07;41.42;;;-2.20;99.90;;;;;;5053821;28;20032;-71
2024/01/18 07:08:30;;;;;;;80.57;40.75;;;-2.20;99.90;;;;;;5053509;28;20047;-70
2024/01/18 07:10:56;;;;;;;80.80;42.33;;;-2.30;99.90;;;;;;5053242;28;20025;-70
2024/01/18 07:13:22;;;;;;;75.30;38.60;;;-2.40;99.90;;;;;;5053583;28;20119;-70
2024/01/18 07:15:47;;;;;;;68.57;37.45;;;-2.50;99.90;;;;;;5053274;28;20110;-70
2024/01/18 07:18:13;;;;;;;76.47;40.60;;;-2.50;99.90;;;;;;5054055;28;20035;-72
2024/01/18 07:20:39;;;;;;;72.50;38.90;;;-2.60;99.90;;;;;;5053411;28;20043;-72
2024/01/18 07:23:04;;;;;;;82.15;42.55;;;-2.70;99.90;;;;;;5052663;28;20033;-72
2024/01/18 07:25:30;;;;;;;71.30;38.97;;;-2.80;99.90;;;;;;5053260;28;20096;-71
2024/01/18 07:27:56;;;;;;;79.53;42.05;;;-2.80;99.90;;;;;;5038740;28;20527;-72
2024/01/18 07:30:22;;;;;;;79.65;43.20;;;-2.90;99.90;;;;;;5047071;28;20104;-72
2024/01/18 07:32:48;;;;;;;77.28;42.03;;;-3.00;99.90;;;;;;5042335;28;20033;-72
2024/01/18 07:35:14;;;;;;;82.38;43.35;;;-3.00;99.90;;;;;;5047598;28;20033;-72
2024/01/18 07:37:40;;;;;;;79.35;40.85;;;-3.00;99.90;;;;;;5052365;28;20072;-73
2024/01/18 07:40:06;;;;;;;81.65;42.58;;;-3.00;99.90;;;;;;5045199;28;20060;-73
2024/01/18 07:42:32;;;;;;;82.13;42.45;;;-3.00;99.90;;;;;;5051887;28;20376;-72
2024/01/18 07:44:58;;;;;;;88.10;42.67;;;-3.10;99.90;;;;;;5053037;28;20104;-72
2024/01/18 07:47:24;;;;;;;76.03;41.15;;;-3.20;99.90;;;;;;5052290;28;20395;-72
2024/01/18 07:49:50;;;;;;;85.18;42.22;;;-3.20;99.90;;;;;;5052729;28;20021;-72
2024/01/18 07:52:16;;;;;;;83.32;42.05;;;-3.20;99.90;;;;;;5051650;28;20051;-72
2024/01/18 07:54:42;;;;;;;84.72;43.53;;;-3.20;99.90;;;;;;5052730;28;20025;-72
2024/01/18 07:57:08;;;;;;;86.03;43.50;;;-3.20;99.90;;;;;;5052517;28;20196;-73
2024/01/18 07:59:34;;;;;;;81.00;41.65;;;-3.20;99.90;;;;;;5050817;28;20036;-72
2024/01/18 08:02:00;;;;;;;81.57;41.70;;;-3.20;99.90;;;;;;5051644;28;20510;-72
2024/01/18 08:04:26;;;;;;;91.00;46.10;;;-3.20;99.90;;;;;;5051006;28;20036;-72
2024/01/18 08:06:52;;;;;;;91.13;46.28;;;-3.20;99.90;;;;;;5050252;28;20036;-72
2024/01/18 08:09:17;;;;;;;87.55;44.75;;;-3.20;99.90;;;;;;5046207;28;20064;-72
2024/01/18 08:11:43;;;;;;;91.38;46.17;;;-3.20;99.90;;;;;;5051207;28;20122;-72
2024/01/18 08:14:08;;;;;;;90.32;45.45;;;-3.10;99.90;;;;;;5052167;28;20037;-72
2024/01/18 08:16:34;;;;;;;94.57;47.03;;;-3.10;99.90;;;;;;5051774;28;20078;-72
2024/01/18 08:18:59;;;;;;;97.05;49.63;;;-3.10;99.90;;;;;;5050440;28;20040;-72
2024/01/18 08:21:25;;;;;;;107.03;50.92;;;-3.10;99.90;;;;;;5055968;28;20033;-72
2024/01/18 08:23:51;;;;;;;94.15;48.08;;;-3.00;99.90;;;;;;5056407;28;20434;-72
2024/01/18 08:26:17;;;;;;;90.72;45.97;;;-3.00;99.90;;;;;;5056106;28;20139;-72
2024/01/18 08:28:43;;;;;;;103.28;52.40;;;-2.90;99.90;;;;;;5056248;28;20032;-72
2024/01/18 08:31:09;;;;;;;106.18;54.00;;;-2.40;99.90;;;;;;5056260;28;20121;-72
2024/01/18 08:33:34;;;;;;;104.00;53.95;;;-1.60;99.90;;;;;;5053652;28;20112;-72
2024/01/18 08:36:00;;;;;;;90.80;49.88;;;-0.80;99.90;;;;;;5052366;28;20086;-74
2024/01/18 08:38:26;;;;;;;89.15;47.67;;;-0.10;99.90;;;;;;5050166;28;20025;-73
2024/01/18 08:40:52;;;;;;;80.53;44.63;;;0.20;99.90;;;;;;5053923;28;20135;-73
2024/01/18 08:43:22;;;;;;;74.90;40.97;;;0.70;99.90;;;;;;5055857;28;20033;-72
2024/01/18 08:45:47;;;;;;;69.28;39.30;;;1.10;99.90;;;;;;5051262;28;20025;-72
2024/01/18 08:48:13;;;;;;;62.38;35.90;;;2.00;56.60;;;;;;5055673;28;20017;-72
2024/01/18 08:50:38;;;;;;;56.10;34.47;;;2.40;1.00;;;;;;5055185;28;20119;-72
2024/01/18 08:53:04;;;;;;;59.38;34.80;;;2.70;1.00;;;;;;5055750;28;20059;-72
2024/01/18 08:55:29;;;;;;;59.88;36.72;;;3.30;99.90;;;;;;5055702;28;20053;-72
2024/01/18 08:57:55;;;;;;;56.13;37.50;;;3.20;99.90;;;;;;5055296;28;20492;-73
2024/01/18 09:00:21;;;;;;;59.38;37.63;;;2.80;99.90;;;;;;5054931;28;20043;-72
2024/01/18 09:02:47;;;;;;;57.55;36.28;;;2.50;1.00;;;;;;5053968;28;20045;-72
2024/01/18 09:05:13;;;;;;;60.47;36.78;;;2.60;1.00;;;;;;5055699;28;20381;-72
2024/01/18 09:07:40;;;;;;;55.53;34.50;;;2.60;99.90;;;;;;5055106;28;20032;-72
2024/01/18 09:10:07;;;;;;;53.90;35.22;;;2.70;1.00;;;;;;5050939;28;20038;-72
2024/01/18 09:12:32;;;;;;;62.47;36.28;;;2.80;99.90;;;;;;5053929;28;20036;-72
2024/01/18 09:14:58;;;;;;;57.63;34.47;;;3.10;99.90;;;;;;5066334;28;20536;-72
2024/01/18 09:17:23;;;;;;;57.55;33.05;;;3.30;99.90;;;;;;5054102;28;20040;-72
2024/01/18 09:19:49;;;;;;;55.45;31.67;;;3.60;22.20;;;;;;5043954;28;20111;-72
2024/01/18 09:22:15;;;;;;;56.08;33.05;;;3.40;99.90;;;;;;5045323;28;20056;-72
2024/01/18 09:24:42;;;;;;;83.35;48.78;;;3.10;1.00;;;;;;5053323;28;20036;-72
2024/01/18 09:27:09;;;;;;;172.15;93.32;;;3.60;1.00;;;;;;5049141;28;20025;-71
2024/01/18 09:29:36;;;;;;;117.47;59.28;;;3.70;1.00;;;;;;5053730;28;20120;-72
2024/01/18 09:32:02;;;;;;;134.55;68.25;;;3.70;1.00;;;;;;5052942;28;20470;-72
2024/01/18 09:34:28;;;;;;;70.63;42.97;;;3.40;1.00;;;;;;5053882;28;20391;-72
2024/01/18 09:36:53;;;;;;;48.92;33.05;;;3.70;1.00;;;;;;5053768;28;20040;-71
2024/01/18 09:39:19;;;;;;;44.45;29.48;;;4.00;1.00;;;;;;5054952;28;20479;-71
2024/01/18 09:41:53;;;;;;;41.20;27.83;;;4.20;99.90;;;;;;5055455;28;20033;-71
2024/01/18 09:44:25;;;;;;;42.90;26.80;;;4.40;1.00;;;;;;5055562;28;20455;-72
2024/01/18 09:46:53;;;;;;;46.97;27.50;;;4.30;51.90;;;;;;5055095;28;20430;-72
2024/01/18 09:49:19;;;;;;;40.58;27.20;;;4.30;99.90;;;;;;5055301;28;20060;-71
2024/01/18 09:51:45;;;;;;;41.88;27.33;;;4.10;1.00;;;;;;5055140;28;20083;-72
2024/01/18 09:54:11;;;;;;;41.83;27.10;;;4.40;1.00;;;;;;5052650;28;20021;-71
2024/01/18 09:56:43;;;;;;;44.65;29.73;;;5.00;97.90;;;;;;5054515;28;20384;-71
2024/01/18 09:59:13;;;;;;;45.50;28.38;;;4.90;99.90;;;;;;5050380;28;20037;-72
2024/01/18 10:01:39;;;;;;;40.45;26.63;;;5.10;9.90;;;;;;5052922;28;20399;-72
2024/01/18 10:04:07;;;;;;;31.70;21.02;;;5.20;99.90;;;;;;5051528;28;20052;-72
2024/01/18 10:06:33;;;;;;;35.25;21.30;;;5.50;1.00;;;;;;5052554;28;20375;-71
2024/01/18 10:08:58;;;;;;;30.60;21.20;;;5.90;99.90;;;;;;5054551;28;20025;-71
2024/01/18 10:11:24;;;;;;;30.75;19.70;;;5.80;99.90;;;;;;5054277;28;20016;-71
2024/01/18 10:13:55;;;;;;;33.60;20.63;;;6.10;99.90;;;;;;5054859;28;20503;-72
2024/01/18 10:16:32;;;;;;;31.00;19.85;;;5.40;99.90;;;;;;5053502;28;20471;-71
2024/01/18 10:19:00;;;;;;;26.55;17.75;;;4.60;1.00;;;;;;5054638;28;20021;-71
2024/01/18 10:21:26;;;;;;;31.60;17.90;;;4.50;37.50;;;;;;5053942;28;20035;-71
2024/01/18 10:23:54;;;;;;;26.85;17.95;;;4.60;1.00;;;;;;5053982;28;20033;-71
2024/01/18 10:26:21;;;;;;;31.10;16.58;;;4.40;58.10;;;;;;5054203;28;20476;-71
2024/01/18 10:28:47;;;;;;;25.92;16.38;;;4.40;1.00;;;;;;5054564;28;20108;-71
2024/01/18 10:31:13;;;;;;;24.52;16.98;;;5.10;1.00;;;;;;5054747;28;20039;-71
2024/01/18 10:33:39;;;;;;;26.65;16.77;;;5.30;99.90;;;;;;5054522;28;20491;-72
2024/01/18 10:36:05;;;;;;;29.23;17.50;;;5.90;99.90;;;;;;5053630;28;20087;-72
2024/01/18 10:38:32;;;;;;;25.92;16.83;;;6.00;1.00;;;;;;5044384;28;20061;-71
2024/01/18 10:40:59;;;;;;;24.45;16.08;;;6.00;99.90;;;;;;5053968;28;20483;-71
2024/01/18 10:43:33;;;;;;;28.30;17.60;;;6.20;99.90;;;;;;5052587;28;20029;-71
2024/01/18 10:45:59;;;;;;;25.77;16.80;;;5.80;68.00;;;;;;5052887;28;20033;-71
2024/01/18 10:48:26;;;;;;;87.60;48.85;;;5.70;1.00;;;;;;5053143;28;20475;-71
2024/01/18 10:50:53;;;;;;;47.17;27.63;;;5.90;99.90;;;;;;5053455;28;20480;-71
2024/01/18 10:53:20;;;;;;;23.83;16.30;;;5.80;99.90;;;;;;5053472;28;20029;-71
2024/01/18 10:55:46;;;;;;;20.83;12.23;;;6.40;99.90;;;;;;5053411;28;20025;-71
2024/01/18 10:58:12;;;;;;;20.83;12.18;;;6.40;99.90;;;;;;5044343;28;20038;-71
2024/01/18 11:00:37;;;;;;;21.85;12.60;;;6.40;1.00;;;;;;5051643;28;20386;-71
2024/01/18 11:03:03;;;;;;;17.55;12.30;;;6.30;99.90;;;;;;5052815;28;20102;-71
2024/01/18 11:05:30;;;;;;;18.33;12.32;;;6.50;99.90;;;;;;5053578;28;20390;-71
2024/01/18 11:07:56;;;;;;;18.83;11.98;;;6.80;34.20;;;;;;5053631;28;20025;-71
2024/01/18 11:10:23;;;;;;;19.55;11.73;;;6.80;99.90;;;;;;5053947;28;20025;-71
2024/01/18 11:12:49;;;;;;;17.75;12.15;;;6.30;99.90;;;;;;5053585;28;20041;-71
2024/01/18 11:15:16;;;;;;;17.20;11.00;;;6.00;1.00;;;;;;5053591;28;20479;-71
2024/01/18 11:17:45;;;;;;;18.75;11.45;;;6.60;99.90;;;;;;5053629;28;20052;-71
2024/01/18 11:20:11;;;;;;;16.05;10.85;;;6.70;1.00;;;;;;5053780;28;20561;-71
2024/01/18 11:22:39;;;;;;;18.15;11.38;;;6.60;99.90;;;;;;5052345;28;20025;-71
2024/01/18 11:25:06;;;;;;;17.15;10.88;;;6.90;99.90;;;;;;5053104;28;20036;-71
2024/01/18 11:27:37;;;;;;;16.10;10.98;;;6.90;99.90;;;;;;5053374;28;20376;-71
2024/01/18 11:30:05;;;;;;;16.33;11.23;;;6.70;99.90;;;;;;5052629;28;20033;-72
2024/01/18 11:32:32;;;;;;;18.90;10.48;;;6.70;99.90;;;;;;5052706;28;20074;-71
2024/01/18 11:35:08;;;;;;;16.17;11.27;;;6.20;99.90;;;;;;5051927;28;20037;-72
2024/01/18 11:37:34;;;;;;;17.88;11.63;;;6.30;99.90;;;;;;5034413;28;20029;-72
2024/01/18 11:40:00;;;;;;;17.60;11.57;;;5.70;1.00;;;;;;5053535;28;20484;-71
2024/01/18 11:42:27;;;;;;;19.08;10.82;;;5.50;99.90;;;;;;5053272;28;20103;-72
2024/01/18 11:45:15;;;;;;;21.17;11.60;;;5.50;99.90;;;;;;5052876;28;20033;-72
2024/01/18 11:47:41;;;;;;;16.95;10.38;;;5.00;1.00;;;;;;5053392;28;20024;-72
2024/01/18 11:50:10;;;;;;;16.55;10.02;;;4.80;99.90;;;;;;5052749;28;20040;-72
2024/01/18 11:52:38;;;;;;;17.65;10.52;;;4.90;1.00;;;;;;5047854;28;20025;-72
2024/01/18 11:55:05;;;;;;;16.73;10.82;;;5.00;1.00;;;;;;5052095;28;20098;-72
2024/01/18 11:57:32;;;;;;;15.93;9.75;;;4.60;1.00;;;;;;5047328;28;20036;-72
2024/01/18 11:59:58;;;;;;;16.67;9.55;;;4.60;46.70;;;;;;5041562;28;20053;-71
2024/01/18 12:02:28;;;;;;;14.73;9.18;;;4.40;1.00;;;;;;5052320;28;20041;-71
2024/01/18 12:04:55;;;;;;;14.52;9.20;;;4.60;99.90;;;;;;5051339;28;20037;-72
2024/01/18 12:07:22;;;;;;;15.80;9.55;;;4.40;66.00;;;;;;5052240;28;20075;-72
2024/01/18 12:09:47;;;;;;;16.48;9.43;;;4.50;99.90;;;;;;5051997;28;20467;-72
2024/01/18 12:12:14;;;;;;;15.20;10.05;;;4.40;99.90;;;;;;5052844;28;20029;-71
2024/01/18 12:14:41;;;;;;;14.75;8.90;;;4.10;1.00;;;;;;5051896;28;20029;-71
2024/01/18 12:17:09;;;;;;;18.30;9.18;;;4.20;1.00;;;;;;5052340;28;20033;-71
2024/01/18 12:19:38;;;;;;;10.95;8.32;;;4.50;93.60;;;;;;5052766;28;20428;-72
2024/01/18 12:22:09;;;;;;;17.92;8.57;;;4.20;1.00;;;;;;5051013;28;20087;-71
2024/01/18 12:24:35;;;;;;;13.63;8.88;;;4.40;99.90;;;;;;5044305;28;20067;-71